Time;durP1;ratioP1;P1;durP2;ratioP2;P2;SDS_P1;SDS_P2;PMS_P1;PMS_P2;Temp;Humidity;BMP_temperature;BMP_pressure;BME280_temperature;BME280_humidity;BME280_pressure;Samples;Min_cycle;Max_cycle;Signal;HPM_P1;HPM_P2
2022/01/11 00:01:09;;;;;;;50.00;18.53;;;2.70;99.70;;;;;;5011959;28;20466;-64
2022/01/11 00:03:37;;;;;;;51.17;19.97;;;2.60;99.70;;;;;;5011838;28;20538;-65
2022/01/11 00:06:17;;;;;;;52.83;19.70;;;2.80;99.70;;;;;;5011609;28;20458;-64
2022/01/11 00:08:45;;;;;;;49.10;19.40;;;2.80;99.70;;;;;;5011646;28;20476;-65
2022/01/11 00:11:12;;;;;;;47.17;18.90;;;2.60;99.70;;;;;;5011589;28;20911;-64
2022/01/11 00:13:42;;;;;;;48.83;18.13;;;2.60;99.70;;;;;;5011873;28;20450;-65
2022/01/11 00:16:14;;;;;;;53.03;21.20;;;2.40;99.70;;;;;;5011637;28;20504;-64
2022/01/11 00:18:40;;;;;;;54.93;21.03;;;2.40;99.70;;;;;;5011316;28;20445;-65
2022/01/11 00:21:07;;;;;;;55.23;21.10;;;2.30;99.70;;;;;;5011442;28;20544;-65
2022/01/11 00:26:18;;;;;;;54.77;21.70;;;2.30;99.70;;;;;;5011529;28;20421;-64
2022/01/11 00:28:46;;;;;;;55.50;20.53;;;2.30;99.70;;;;;;5011045;28;20452;-65
2022/01/11 00:31:13;;;;;;;58.10;20.60;;;2.50;99.70;;;;;;5011301;28;20457;-65
2022/01/11 00:33:43;;;;;;;54.90;21.20;;;2.50;99.70;;;;;;5011692;28;20445;-65
2022/01/11 00:36:11;;;;;;;53.53;21.07;;;2.40;99.70;;;;;;5011615;28;20441;-65
2022/01/11 00:38:40;;;;;;;55.80;21.80;;;2.40;99.70;;;;;;5010997;28;20445;-65
2022/01/11 00:41:09;;;;;;;53.60;19.70;;;2.30;99.70;;;;;;5084076;23;20496;-68
2022/01/11 00:43:37;;;;;;;57.03;20.57;;;2.40;99.70;;;;;;5031053;28;20898;-68
2022/01/11 00:46:06;;;;;;;52.83;20.67;;;2.30;99.70;;;;;;5031443;28;21150;-67
2022/01/11 00:48:35;;;;;;;57.47;21.63;;;2.60;99.70;;;;;;5031430;28;20448;-68
2022/01/11 00:51:02;;;;;;;50.47;20.20;;;2.60;99.70;;;;;;5031453;28;20476;-68
2022/01/11 00:53:29;;;;;;;53.93;19.70;;;2.50;99.70;;;;;;5030444;28;20976;-68
2022/01/11 00:55:55;;;;;;;48.43;18.93;;;2.80;99.70;;;;;;5031049;28;20440;-68
2022/01/11 00:58:23;;;;;;;51.97;18.83;;;2.60;99.70;;;;;;5030758;28;20444;-68
2022/01/11 01:00:50;;;;;;;55.57;18.83;;;2.70;99.70;;;;;;5031215;28;20464;-68
2022/01/11 01:03:18;;;;;;;46.27;18.80;;;2.60;99.70;;;;;;5031251;28;20455;-68
2022/01/11 01:05:45;;;;;;;53.20;19.37;;;2.50;99.70;;;;;;5034890;28;20481;-68
2022/01/11 01:08:12;;;;;;;56.07;19.87;;;2.50;99.70;;;;;;5034543;28;20453;-68
2022/01/11 01:10:40;;;;;;;51.57;18.73;;;2.40;99.70;;;;;;5034853;28;20570;-68
2022/01/11 01:13:09;;;;;;;52.57;19.60;;;2.40;99.70;;;;;;5034835;28;20454;-68
2022/01/11 01:15:37;;;;;;;51.10;19.07;;;2.40;99.70;;;;;;5034717;28;20945;-68
2022/01/11 01:18:05;;;;;;;47.60;18.30;;;2.60;99.70;;;;;;5034412;28;20526;-68
2022/01/11 01:20:33;;;;;;;47.97;18.70;;;2.50;99.70;;;;;;5034638;28;20464;-68
2022/01/11 01:23:01;;;;;;;49.00;17.57;;;2.40;99.70;;;;;;5034607;28;20482;-68
2022/01/11 01:25:28;;;;;;;53.13;19.00;;;2.40;99.70;;;;;;5034478;28;20487;-68
2022/01/11 01:27:55;;;;;;;49.37;18.60;;;2.40;99.70;;;;;;5034121;28;20445;-68
2022/01/11 01:30:22;;;;;;;44.67;18.50;;;2.40;99.70;;;;;;5034480;28;20460;-68
2022/01/11 01:32:50;;;;;;;47.90;18.43;;;2.40;99.70;;;;;;5034381;28;20871;-68
2022/01/11 01:35:18;;;;;;;50.27;18.17;;;2.30;99.70;;;;;;5034579;28;20498;-68
2022/01/11 01:37:46;;;;;;;52.97;18.23;;;2.30;99.70;;;;;;5034189;28;20909;-68
2022/01/11 01:40:18;;;;;;;49.47;18.87;;;2.30;99.70;;;;;;5034417;28;20472;-68
2022/01/11 01:42:45;;;;;;;45.33;17.70;;;2.30;99.70;;;;;;5034142;28;20472;-68
2022/01/11 01:45:13;;;;;;;52.93;18.47;;;2.30;99.70;;;;;;5034270;28;20484;-68
2022/01/11 01:47:40;;;;;;;55.40;19.87;;;2.30;99.70;;;;;;5034001;28;20459;-64
2022/01/11 01:50:08;;;;;;;49.13;19.53;;;2.40;99.70;;;;;;5033969;28;20472;-68
2022/01/11 01:52:35;;;;;;;52.47;19.70;;;2.30;99.70;;;;;;5033568;28;20445;-68
2022/01/11 01:55:06;;;;;;;46.70;18.90;;;2.30;99.70;;;;;;5034151;28;20949;-68
2022/01/11 01:57:33;;;;;;;52.00;18.67;;;2.80;99.70;;;;;;5033931;28;20527;-68
2022/01/11 02:00:03;;;;;;;52.53;18.90;;;2.60;99.70;;;;;;5033536;28;20472;-68
2022/01/11 02:02:30;;;;;;;54.93;19.07;;;2.50;99.70;;;;;;5033845;28;20946;-68
2022/01/11 02:04:57;;;;;;;50.23;19.80;;;2.60;99.70;;;;;;5033855;28;20481;-68
2022/01/11 02:07:26;;;;;;;51.90;20.00;;;2.50;99.70;;;;;;5034202;28;20532;-68
2022/01/11 02:09:52;;;;;;;50.20;18.97;;;2.50;99.70;;;;;;5033560;28;20500;-68
2022/01/11 02:12:20;;;;;;;54.00;19.70;;;2.40;99.70;;;;;;5033858;28;20448;-68
2022/01/11 02:14:47;;;;;;;53.40;19.50;;;2.40;99.70;;;;;;5033206;28;20448;-68
2022/01/11 02:17:14;;;;;;;50.70;20.53;;;2.40;99.70;;;;;;5033056;28;20446;-68
2022/01/11 02:19:41;;;;;;;62.07;20.93;;;2.40;99.70;;;;;;5033306;28;20449;-68
2022/01/11 02:22:09;;;;;;;51.00;18.40;;;2.40;99.70;;;;;;5033648;28;20456;-67
2022/01/11 02:24:35;;;;;;;49.00;19.00;;;2.30;99.70;;;;;;5033558;28;20444;-68
2022/01/11 02:27:03;;;;;;;49.27;18.53;;;2.30;99.70;;;;;;5033617;28;20815;-68
2022/01/11 02:29:30;;;;;;;57.50;20.80;;;2.20;99.70;;;;;;5032901;28;20441;-68
2022/01/11 02:31:56;;;;;;;51.83;18.80;;;2.30;99.70;;;;;;5033464;28;20448;-68
2022/01/11 02:34:24;;;;;;;49.57;18.67;;;2.30;99.70;;;;;;5033417;28;20873;-68
2022/01/11 02:36:50;;;;;;;54.77;19.23;;;2.40;99.70;;;;;;5033787;28;20452;-68
2022/01/11 02:39:18;;;;;;;51.03;18.67;;;2.30;99.70;;;;;;5033216;28;20498;-68
2022/01/11 02:41:53;;;;;;;50.37;18.83;;;2.30;99.70;;;;;;5033076;28;20485;-68
2022/01/11 02:44:21;;;;;;;44.80;18.30;;;2.30;99.70;;;;;;5033475;28;20810;-68
2022/01/11 02:46:47;;;;;;;50.33;19.10;;;2.20;99.70;;;;;;5033179;28;21000;-68
2022/01/11 02:49:14;;;;;;;56.90;21.20;;;2.20;99.70;;;;;;5032947;28;20445;-68
2022/01/11 02:51:41;;;;;;;47.43;19.23;;;2.30;99.70;;;;;;5033146;28;20530;-68
2022/01/11 02:54:08;;;;;;;54.37;20.37;;;2.40;99.70;;;;;;5032454;28;20448;-68
2022/01/11 02:56:36;;;;;;;44.87;18.77;;;2.40;99.70;;;;;;5032872;28;20444;-69
2022/01/11 02:59:04;;;;;;;48.40;19.70;;;2.40;99.70;;;;;;5032712;28;20471;-68
2022/01/11 03:01:31;;;;;;;53.90;18.90;;;2.40;99.70;;;;;;5032946;28;20469;-68
2022/01/11 03:03:58;;;;;;;43.47;18.33;;;2.40;99.70;;;;;;5032744;28;20917;-68
2022/01/11 03:06:25;;;;;;;43.03;17.40;;;2.40;99.70;;;;;;5033026;28;20480;-68
2022/01/11 03:08:51;;;;;;;52.80;20.20;;;2.90;99.70;;;;;;5032114;28;20532;-68
2022/01/11 03:11:20;;;;;;;53.50;20.23;;;2.90;99.70;;;;;;5032748;28;20471;-68
2022/01/11 03:13:48;;;;;;;52.77;20.73;;;2.70;99.70;;;;;;5032829;28;20499;-68
2022/01/11 03:16:16;;;;;;;51.77;19.50;;;2.60;99.70;;;;;;5032832;28;20453;-68
2022/01/11 03:18:43;;;;;;;51.80;19.90;;;2.60;99.70;;;;;;5032069;28;20444;-68
2022/01/11 03:21:11;;;;;;;48.10;19.07;;;2.50;99.70;;;;;;5032665;28;20472;-68
2022/01/11 03:23:38;;;;;;;51.70;21.17;;;2.40;99.70;;;;;;5032634;28;20444;-68
2022/01/11 03:26:04;;;;;;;52.57;19.90;;;2.30;99.70;;;;;;5032633;28;20472;-68
2022/01/11 03:28:33;;;;;;;51.40;18.93;;;2.40;99.70;;;;;;5032095;28;20870;-68
2022/01/11 03:31:02;;;;;;;55.43;19.73;;;2.90;99.70;;;;;;5032744;28;20468;-68
2022/01/11 03:33:29;;;;;;;56.77;20.30;;;3.00;99.70;;;;;;5032601;28;20449;-68
2022/01/11 03:35:56;;;;;;;55.50;19.40;;;2.70;99.70;;;;;;5032629;28;20527;-68
2022/01/11 03:38:23;;;;;;;45.67;19.10;;;2.60;99.70;;;;;;5031955;28;20937;-68
2022/01/11 03:40:51;;;;;;;55.23;19.50;;;2.50;99.70;;;;;;5032437;28;20476;-68
2022/01/11 03:43:21;;;;;;;49.27;19.53;;;2.40;99.70;;;;;;5032247;28;20894;-68
2022/01/11 03:45:48;;;;;;;58.37;20.53;;;2.30;99.70;;;;;;5032334;28;20565;-68
2022/01/11 03:48:16;;;;;;;54.80;18.70;;;2.30;99.70;;;;;;5031851;28;20445;-68
2022/01/11 03:50:48;;;;;;;51.10;19.30;;;2.30;99.70;;;;;;5032184;28;20460;-68
2022/01/11 03:53:17;;;;;;;49.27;20.20;;;2.30;99.70;;;;;;5031482;28;20455;-69
2022/01/11 03:55:57;;;;;;;50.87;19.77;;;2.30;99.70;;;;;;5032202;28;20471;-69
2022/01/11 03:58:26;;;;;;;50.03;18.57;;;2.30;99.70;;;;;;5031815;28;20495;-68
2022/01/11 04:00:53;;;;;;;56.50;21.23;;;2.30;99.70;;;;;;5031996;28;20902;-68
2022/01/11 04:03:22;;;;;;;55.50;19.77;;;2.30;99.70;;;;;;5032081;28;20894;-68
2022/01/11 04:05:49;;;;;;;53.83;19.60;;;2.30;99.70;;;;;;5031951;28;20900;-68
2022/01/11 04:08:16;;;;;;;51.57;20.53;;;2.40;99.70;;;;;;5031821;28;20444;-68
2022/01/11 04:10:42;;;;;;;54.67;20.63;;;2.30;99.70;;;;;;5031939;28;20906;-69
2022/01/11 04:13:09;;;;;;;57.53;21.33;;;2.30;99.70;;;;;;5032156;28;20449;-68
2022/01/11 04:15:36;;;;;;;56.13;20.00;;;2.30;99.70;;;;;;5031916;28;20445;-68
2022/01/11 04:18:02;;;;;;;50.23;20.70;;;2.30;99.70;;;;;;5031525;28;20445;-69
2022/01/11 04:20:30;;;;;;;50.47;19.80;;;2.20;99.70;;;;;;5031917;28;20471;-69
2022/01/11 04:22:57;;;;;;;60.17;21.67;;;2.20;99.70;;;;;;5031758;28;20449;-68
2022/01/11 04:25:24;;;;;;;51.57;20.70;;;2.20;99.70;;;;;;5031926;28;20861;-68
2022/01/11 04:27:50;;;;;;;51.47;20.17;;;2.30;99.70;;;;;;5031169;28;20444;-68
2022/01/11 04:30:17;;;;;;;57.83;19.73;;;2.50;99.70;;;;;;5031393;28;21032;-68
2022/01/11 04:32:44;;;;;;;60.20;19.90;;;2.60;99.70;;;;;;5031409;28;20440;-68
2022/01/11 04:35:13;;;;;;;52.47;20.13;;;2.50;99.70;;;;;;5031881;28;20933;-68
2022/01/11 04:37:41;;;;;;;57.63;21.63;;;2.40;99.70;;;;;;5031583;28;20807;-68
2022/01/11 04:40:08;;;;;;;50.73;19.07;;;2.50;99.70;;;;;;5034372;28;20472;-68
2022/01/11 04:42:35;;;;;;;63.97;21.93;;;2.40;99.70;;;;;;5036038;28;20452;-68
2022/01/11 04:45:02;;;;;;;51.83;21.00;;;2.40;99.70;;;;;;5035777;28;20440;-68
2022/01/11 04:47:29;;;;;;;50.27;21.00;;;2.40;99.70;;;;;;5035973;28;20607;-68
2022/01/11 04:49:56;;;;;;;52.27;21.47;;;2.30;99.70;;;;;;5035278;28;20464;-68
2022/01/11 04:52:23;;;;;;;64.90;20.90;;;2.60;99.70;;;;;;5035003;28;20464;-68
2022/01/11 04:54:51;;;;;;;48.57;19.77;;;2.40;99.70;;;;;;5035240;28;20448;-68
2022/01/11 04:57:17;;;;;;;51.37;20.20;;;2.50;99.70;;;;;;5035127;28;20445;-68
2022/01/11 04:59:44;;;;;;;56.57;20.00;;;2.70;99.70;;;;;;5034412;28;20445;-68
2022/01/11 05:02:11;;;;;;;53.47;20.37;;;2.60;99.70;;;;;;5035028;28;20866;-68
2022/01/11 05:04:37;;;;;;;55.13;20.77;;;2.60;99.70;;;;;;5035023;28;20441;-68
2022/01/11 05:07:05;;;;;;;60.77;20.90;;;2.50;99.70;;;;;;5035058;28;20495;-68
2022/01/11 05:09:32;;;;;;;50.27;20.00;;;2.70;99.70;;;;;;5034433;28;20445;-68
2022/01/11 05:12:00;;;;;;;53.83;19.77;;;2.40;99.70;;;;;;5034990;28;20444;-68
2022/01/11 05:14:26;;;;;;;55.43;21.33;;;2.40;99.70;;;;;;5034694;28;20443;-67
2022/01/11 05:16:53;;;;;;;56.63;20.73;;;2.50;99.70;;;;;;5034834;28;20871;-68
2022/01/11 05:19:20;;;;;;;51.73;20.93;;;2.40;99.70;;;;;;5034473;28;20498;-68
2022/01/11 05:21:46;;;;;;;53.83;20.80;;;2.40;99.70;;;;;;5034560;28;20467;-68
2022/01/11 05:24:13;;;;;;;53.83;21.47;;;2.30;99.70;;;;;;5034507;28;20452;-68
2022/01/11 05:26:40;;;;;;;63.43;21.40;;;2.20;99.70;;;;;;5034786;28;20515;-68
2022/01/11 05:29:08;;;;;;;57.57;21.20;;;2.30;99.70;;;;;;5034494;28;20522;-68
2022/01/11 05:31:35;;;;;;;48.63;20.03;;;2.30;99.70;;;;;;5034766;28;20464;-68
2022/01/11 05:34:02;;;;;;;49.23;19.90;;;2.40;99.70;;;;;;5034756;28;20751;-69
2022/01/11 05:36:28;;;;;;;59.33;21.60;;;2.40;99.70;;;;;;5034702;28;20937;-68
2022/01/11 05:38:55;;;;;;;52.13;20.97;;;2.40;99.70;;;;;;5034484;28;20447;-68
2022/01/11 05:41:22;;;;;;;54.00;21.40;;;2.80;99.70;;;;;;5034597;28;20871;-68
2022/01/11 05:43:48;;;;;;;56.77;22.53;;;2.80;99.70;;;;;;5034673;28;20451;-68
2022/01/11 05:46:16;;;;;;;60.03;24.20;;;2.70;99.70;;;;;;5034788;28;20865;-67
2022/01/11 05:48:45;;;;;;;68.97;24.90;;;2.40;99.70;;;;;;5034128;28;20455;-66
2022/01/11 05:51:12;;;;;;;57.00;23.00;;;2.60;99.70;;;;;;5034193;28;20575;-66
2022/01/11 05:53:39;;;;;;;59.50;22.83;;;2.50;99.70;;;;;;5034744;28;20444;-66
2022/01/11 05:56:06;;;;;;;64.43;24.10;;;2.50;99.70;;;;;;5034693;28;20445;-66
2022/01/11 05:58:33;;;;;;;57.13;22.03;;;2.50;99.70;;;;;;5033687;28;20522;-67
2022/01/11 06:00:59;;;;;;;54.13;22.63;;;2.40;99.70;;;;;;5033911;28;20465;-69
2022/01/11 06:03:27;;;;;;;58.17;21.53;;;2.60;99.70;;;;;;5033930;28;20568;-66
2022/01/11 06:05:54;;;;;;;57.10;21.90;;;2.50;99.70;;;;;;5033775;28;20496;-66
2022/01/11 06:08:21;;;;;;;56.23;22.63;;;2.40;99.70;;;;;;5033631;28;20457;-66
2022/01/11 06:10:49;;;;;;;56.30;21.93;;;2.50;99.70;;;;;;5033725;28;20837;-66
2022/01/11 06:13:15;;;;;;;68.70;23.67;;;2.40;99.70;;;;;;5033747;28;20444;-66
2022/01/11 06:15:42;;;;;;;59.90;23.23;;;2.70;99.70;;;;;;5033557;28;20444;-66
2022/01/11 06:18:09;;;;;;;63.57;25.10;;;2.50;99.70;;;;;;5033343;28;20475;-67
2022/01/11 06:20:37;;;;;;;64.13;25.20;;;2.30;99.70;;;;;;5033585;28;20480;-67
2022/01/11 06:23:04;;;;;;;62.67;24.93;;;2.30;99.70;;;;;;5033890;28;20448;-68
2022/01/11 06:25:30;;;;;;;68.13;26.03;;;2.40;99.70;;;;;;5033782;28;20448;-67
2022/01/11 06:27:57;;;;;;;68.13;25.33;;;2.40;99.70;;;;;;5033410;28;20481;-67
2022/01/11 06:30:24;;;;;;;67.27;25.83;;;2.40;99.70;;;;;;5033437;28;20472;-67
2022/01/11 06:32:50;;;;;;;57.00;23.33;;;2.50;99.70;;;;;;5033568;28;20969;-67
2022/01/11 06:35:19;;;;;;;62.00;23.50;;;2.50;99.70;;;;;;5033601;28;20440;-67
2022/01/11 06:37:47;;;;;;;57.23;23.03;;;;;;;;;;5033328;28;20507;-63
2022/01/11 06:40:16;;;;;;;60.60;23.07;;;2.40;99.70;;;;;;5034691;28;20469;-66
2022/01/11 06:42:43;;;;;;;58.47;21.97;;;2.40;99.70;;;;;;5032978;28;20452;-66
2022/01/11 06:45:11;;;;;;;62.83;22.77;;;2.50;99.70;;;;;;5032995;28;20448;-66
2022/01/11 06:47:39;;;;;;;57.13;22.50;;;2.40;99.70;;;;;;5032957;28;20492;-65
2022/01/11 06:50:07;;;;;;;60.53;23.87;;;2.30;99.70;;;;;;5032473;28;20468;-66
2022/01/11 06:52:33;;;;;;;59.17;22.13;;;2.30;99.70;;;;;;5032329;28;20449;-66
2022/01/11 06:55:01;;;;;;;54.13;21.10;;;2.50;99.70;;;;;;5032757;28;20448;-66
2022/01/11 06:57:28;;;;;;;62.77;21.90;;;2.40;99.70;;;;;;5032550;28;20827;-66
2022/01/11 06:59:55;;;;;;;56.23;21.60;;;2.30;99.70;;;;;;5032302;28;20476;-66
2022/01/11 07:02:22;;;;;;;56.30;21.27;;;2.50;99.70;;;;;;5031828;28;20751;-66
2022/01/11 07:04:49;;;;;;;61.70;22.17;;;2.70;99.70;;;;;;5032411;28;20449;-66
2022/01/11 07:07:16;;;;;;;62.60;23.40;;;2.50;99.70;;;;;;5030499;28;20484;-65
2022/01/11 07:09:42;;;;;;;60.33;21.70;;;2.30;99.70;;;;;;5025787;28;20462;-66
2022/01/11 07:12:11;;;;;;;61.03;22.70;;;2.30;99.70;;;;;;5017052;28;20450;-66
2022/01/11 07:14:37;;;;;;;56.87;21.60;;;2.20;99.70;;;;;;5013872;28;20473;-66
2022/01/11 07:17:04;;;;;;;56.03;20.60;;;2.20;99.70;;;;;;5013646;28;20441;-66
2022/01/11 07:19:31;;;;;;;59.80;22.17;;;2.70;99.70;;;;;;5013997;28;20476;-66
2022/01/11 07:21:59;;;;;;;56.07;21.33;;;2.50;99.70;;;;;;5013486;28;20450;-66
2022/01/11 07:24:26;;;;;;;51.13;20.70;;;2.40;99.70;;;;;;5014770;28;20449;-66
2022/01/11 07:26:54;;;;;;;55.70;21.03;;;2.40;99.70;;;;;;5013310;28;20864;-66
2022/01/11 07:29:22;;;;;;;63.77;22.93;;;2.40;99.70;;;;;;5014336;28;20462;-67
2022/01/11 07:31:49;;;;;;;59.03;22.70;;;2.30;99.70;;;;;;5012278;28;20472;-66
2022/01/11 07:34:16;;;;;;;61.50;23.30;;;2.40;99.70;;;;;;5022650;28;20458;-66
2022/01/11 07:36:43;;;;;;;54.60;20.53;;;2.40;99.70;;;;;;5022185;28;20999;-66
2022/01/11 07:39:12;;;;;;;55.60;20.97;;;2.50;99.70;;;;;;5026410;28;20453;-67
2022/01/11 07:41:39;;;;;;;58.40;21.77;;;3.10;99.70;;;;;;5026189;28;20542;-66
2022/01/11 07:44:08;;;;;;;56.00;22.57;;;2.90;99.70;;;;;;5022402;28;21035;-67
2022/01/11 07:46:38;;;;;;;61.27;23.47;;;2.60;99.70;;;;;;5025949;28;20484;-67
2022/01/11 07:49:05;;;;;;;64.73;22.13;;;2.70;99.70;;;;;;5019490;28;20461;-66
2022/01/11 07:51:32;;;;;;;65.27;23.37;;;2.60;99.70;;;;;;5028652;28;20471;-67
2022/01/11 07:53:59;;;;;;;61.53;22.30;;;2.40;99.70;;;;;;5017651;28;20450;-67
2022/01/11 07:56:25;;;;;;;59.90;22.47;;;2.50;99.70;;;;;;5028520;28;20456;-66
2022/01/11 07:58:52;;;;;;;58.50;23.00;;;2.50;99.70;;;;;;5028097;28;20456;-67
2022/01/11 08:01:19;;;;;;;68.33;23.70;;;2.70;99.70;;;;;;5012849;28;20470;-67
2022/01/11 08:03:47;;;;;;;56.23;22.37;;;2.80;99.70;;;;;;5012687;28;20449;-67
2022/01/11 08:06:15;;;;;;;54.73;22.30;;;2.70;99.70;;;;;;5026027;28;20440;-67
2022/01/11 08:08:41;;;;;;;57.27;22.77;;;2.70;99.70;;;;;;5029226;28;20460;-66
2022/01/11 08:11:10;;;;;;;55.17;21.80;;;2.60;99.70;;;;;;5019733;28;20470;-66
2022/01/11 08:13:37;;;;;;;67.10;22.23;;;2.60;99.70;;;;;;5012359;28;20532;-67
2022/01/11 08:16:04;;;;;;;53.40;21.00;;;2.60;99.70;;;;;;5013950;28;20446;-66
2022/01/11 08:18:31;;;;;;;61.87;22.00;;;2.80;99.70;;;;;;5019530;28;20451;-67
2022/01/11 08:20:59;;;;;;;59.00;22.10;;;3.10;99.70;;;;;;5021058;28;20889;-66
2022/01/11 08:23:26;;;;;;;54.63;21.97;;;3.10;99.70;;;;;;5020231;28;20511;-66
2022/01/11 08:25:53;;;;;;;50.53;20.50;;;3.10;99.70;;;;;;5022188;28;20442;-67
2022/01/11 08:28:19;;;;;;;57.87;22.17;;;3.00;99.70;;;;;;5019917;28;20926;-66
2022/01/11 08:30:46;;;;;;;53.60;21.77;;;3.30;99.70;;;;;;5022097;28;20493;-67
2022/01/11 08:33:13;;;;;;;58.97;23.10;;;3.20;99.70;;;;;;5020339;28;20453;-66
2022/01/11 08:35:40;;;;;;;55.37;22.53;;;3.10;99.70;;;;;;5020433;28;20457;-67
2022/01/11 08:38:08;;;;;;;56.80;22.80;;;3.10;99.70;;;;;;5022626;28;20445;-66
2022/01/11 08:40:34;;;;;;;60.27;23.40;;;3.00;99.70;;;;;;5016704;28;20485;-66
2022/01/11 08:43:03;;;;;;;55.40;22.27;;;2.80;99.70;;;;;;5014624;28;20449;-67
2022/01/11 08:45:30;;;;;;;60.80;23.60;;;3.20;99.70;;;;;;5022268;28;20469;-66
2022/01/11 08:47:57;;;;;;;63.87;25.20;;;3.10;99.70;;;;;;5023185;28;20576;-67
2022/01/11 08:50:24;;;;;;;56.60;23.40;;;2.90;99.70;;;;;;5024872;28;20471;-66
2022/01/11 08:52:51;;;;;;;68.33;25.20;;;3.00;99.70;;;;;;5025969;28;20511;-67
2022/01/11 08:55:19;;;;;;;58.27;22.70;;;2.90;99.70;;;;;;5027973;28;20444;-67
2022/01/11 08:57:46;;;;;;;58.10;22.23;;;3.00;99.70;;;;;;5026091;28;20448;-65
2022/01/11 09:00:18;;;;;;;52.90;20.97;;;3.40;99.70;;;;;;5027767;28;20456;-67
2022/01/11 09:02:45;;;;;;;54.67;23.80;;;3.40;99.70;;;;;;5022353;28;20460;-66
2022/01/11 09:05:12;;;;;;;55.33;23.20;;;3.40;99.70;;;;;;5021649;28;20456;-66
2022/01/11 09:07:38;;;;;;;61.00;23.30;;;3.10;99.70;;;;;;5022190;28;20488;-67
2022/01/11 09:10:07;;;;;;;61.23;23.73;;;3.20;99.70;;;;;;5018956;28;20489;-67
2022/01/11 09:12:35;;;;;;;56.23;22.60;;;3.10;99.70;;;;;;5023021;28;20453;-66
2022/01/11 09:15:02;;;;;;;57.97;22.23;;;3.30;99.70;;;;;;5024118;28;20460;-66
2022/01/11 09:17:29;;;;;;;56.30;22.67;;;3.40;99.70;;;;;;5025823;28;20457;-66
2022/01/11 09:19:56;;;;;;;59.37;22.33;;;3.50;99.70;;;;;;5021373;28;20526;-66
2022/01/11 09:22:23;;;;;;;57.53;22.23;;;3.50;99.70;;;;;;5022033;28;20855;-67
2022/01/11 09:24:50;;;;;;;54.57;22.53;;;3.90;99.70;;;;;;5026420;28;20468;-66
2022/01/11 09:27:17;;;;;;;66.27;23.20;;;3.80;99.70;;;;;;5027473;28;20571;-66
2022/01/11 09:29:45;;;;;;;57.40;23.37;;;3.80;99.70;;;;;;5024380;28;20457;-66
2022/01/11 09:32:13;;;;;;;56.30;22.40;;;4.00;99.70;;;;;;5025074;28;20766;-66
2022/01/11 09:34:40;;;;;;;58.70;22.53;;;4.00;99.70;;;;;;5012906;28;20453;-66
2022/01/11 09:37:07;;;;;;;55.20;22.57;;;4.10;99.70;;;;;;5013793;28;20445;-66
2022/01/11 09:39:35;;;;;;;50.80;21.30;;;4.00;99.70;;;;;;5012934;28;20449;-66
2022/01/11 09:42:02;;;;;;;58.10;22.23;;;4.00;99.70;;;;;;5015843;28;20526;-67
2022/01/11 09:44:29;;;;;;;50.57;22.80;;;4.10;99.70;;;;;;5016046;28;20446;-66
2022/01/11 09:46:57;;;;;;;64.40;23.40;;;4.00;99.70;;;;;;5020945;28;20446;-67
2022/01/11 09:49:23;;;;;;;59.70;23.30;;;3.70;99.70;;;;;;5015959;28;20924;-67
2022/01/11 09:51:52;;;;;;;91.00;35.40;;;3.70;99.70;;;;;;5015043;28;20465;-67
2022/01/11 09:54:19;;;;;;;54.60;23.17;;;3.80;99.70;;;;;;5015982;28;20449;-67
2022/01/11 09:56:46;;;;;;;60.43;23.50;;;3.90;99.70;;;;;;5015057;28;20450;-67
2022/01/11 09:59:14;;;;;;;60.03;23.03;;;3.80;99.70;;;;;;5015781;28;20463;-68
2022/01/11 10:01:41;;;;;;;56.73;24.17;;;3.70;99.70;;;;;;5014868;28;20532;-67
2022/01/11 10:04:11;;;;;;;52.70;22.07;;;3.70;99.70;;;;;;5015984;28;20964;-67
2022/01/11 10:06:42;;;;;;;55.77;22.97;;;3.60;99.70;;;;;;5014802;28;20457;-67
2022/01/11 10:09:16;;;;;;;52.27;22.40;;;3.70;99.70;;;;;;5038720;28;20534;-66
2022/01/11 10:11:45;;;;;;;49.53;19.90;;;4.20;99.70;;;;;;5014679;28;20470;-67
2022/01/11 10:14:24;;;;;;;54.17;23.50;;;4.40;99.70;;;;;;5015810;28;20474;-67
2022/01/11 10:17:04;;;;;;;50.30;19.93;;;4.50;99.70;;;;;;5018236;28;20432;-67
2022/01/11 10:19:34;;;;;;;50.37;18.87;;;4.40;99.70;;;;;;5030023;28;20476;-67
2022/01/11 10:22:07;;;;;;;45.03;18.10;;;4.30;99.70;;;;;;5031606;28;20506;-67
2022/01/11 10:24:38;;;;;;;76.33;31.17;;;4.30;99.70;;;;;;5031092;28;20937;-66
2022/01/11 10:27:07;;;;;;;63.30;29.00;;;4.40;99.70;;;;;;5030949;28;20449;-66
2022/01/11 10:29:37;;;;;;;54.77;22.63;;;4.40;99.70;;;;;;5031041;28;20440;-66
2022/01/11 10:32:20;;;;;;;54.83;21.97;;;4.70;99.70;;;;;;5030992;28;20448;-67
2022/01/11 10:34:49;;;;;;;44.93;19.60;;;4.80;99.70;;;;;;5014153;28;21133;-67
2022/01/11 10:37:17;;;;;;;46.97;18.50;;;4.90;99.70;;;;;;5014507;28;20449;-66
2022/01/11 10:39:45;;;;;;;34.57;15.50;;;4.90;99.70;;;;;;5013579;28;20491;-67
2022/01/11 10:42:27;;;;;;;46.97;17.47;;;4.90;99.70;;;;;;5015105;28;20457;-67
2022/01/11 10:44:58;;;;;;;38.10;16.30;;;4.80;99.70;;;;;;5013893;28;20450;-67
2022/01/11 10:47:27;;;;;;;36.33;15.73;;;4.80;99.70;;;;;;5015184;28;21434;-67
2022/01/11 10:49:59;;;;;;;42.30;16.77;;;4.80;99.70;;;;;;5013412;28;20523;-66
2022/01/11 10:52:28;;;;;;;43.17;16.40;;;5.00;99.70;;;;;;5014633;28;20449;-66
2022/01/11 10:54:55;;;;;;;39.90;17.20;;;5.00;99.70;;;;;;5013931;28;20464;-67
2022/01/11 10:57:27;;;;;;;36.10;14.83;;;5.20;99.70;;;;;;5014249;28;21079;-66
2022/01/11 11:00:19;;;;;;;20.40;9.47;;;5.10;99.70;;;;;;5013089;28;20473;-67
2022/01/11 11:02:50;;;;;;;17.43;8.27;;;5.10;99.70;;;;;;5029171;28;20444;-66
2022/01/11 11:05:23;;;;;;;19.73;7.80;;;5.10;99.70;;;;;;5030503;28;20938;-66
2022/01/11 11:08:12;;;;;;;18.13;8.27;;;5.20;99.70;;;;;;5013798;28;20866;-66
2022/01/11 11:10:45;;;;;;;15.00;5.83;;;5.40;99.70;;;;;;5009093;28;20488;-67
2022/01/11 11:13:20;;;;;;;18.50;7.43;;;5.40;99.70;;;;;;5012923;28;20433;-66
2022/01/11 11:15:49;;;;;;;16.67;6.80;;;5.30;99.70;;;;;;5014538;28;20444;-66
2022/01/11 11:18:31;;;;;;;14.73;6.43;;;5.30;99.70;;;;;;5013078;28;20466;-67
2022/01/11 11:21:14;;;;;;;11.27;5.00;;;5.30;99.70;;;;;;5014415;28;20475;-66
2022/01/11 11:23:41;;;;;;;13.03;5.80;;;5.20;99.70;;;;;;5013490;28;20453;-67
2022/01/11 11:26:08;;;;;;;13.20;5.90;;;5.30;99.70;;;;;;5026076;28;20968;-67
2022/01/11 11:28:35;;;;;;;14.27;6.40;;;5.30;99.70;;;;;;5029782;28;20840;-67
2022/01/11 11:31:03;;;;;;;13.17;5.67;;;5.30;99.70;;;;;;5028220;28;20465;-67
2022/01/11 11:33:31;;;;;;;11.60;5.70;;;5.20;99.70;;;;;;5030142;28;20453;-66
2022/01/11 11:35:59;;;;;;;10.10;4.70;;;5.20;99.70;;;;;;5028433;28;20448;-66
2022/01/11 11:38:30;;;;;;;11.23;4.93;;;5.00;99.70;;;;;;5029752;28;20447;-66
2022/01/11 11:40:59;;;;;;;7.83;3.90;;;5.00;99.70;;;;;;5028164;28;20476;-66
2022/01/11 11:43:26;;;;;;;8.60;4.00;;;5.00;99.70;;;;;;5029943;28;20751;-66
2022/01/11 11:45:53;;;;;;;12.57;5.40;;;5.00;99.70;;;;;;5028004;28;20488;-66
2022/01/11 11:48:23;;;;;;;10.67;4.57;;;5.10;99.70;;;;;;5029935;28;20480;-67
2022/01/11 11:50:52;;;;;;;12.40;4.63;;;5.10;99.70;;;;;;5028009;28;20473;-67
2022/01/11 11:53:23;;;;;;;8.33;4.30;;;5.10;99.70;;;;;;5029532;28;20460;-66
2022/01/11 11:55:50;;;;;;;10.10;4.47;;;5.10;99.70;;;;;;5016056;28;20878;-67
2022/01/11 11:58:20;;;;;;;7.47;4.00;;;5.00;99.70;;;;;;5012401;28;20449;-66
2022/01/11 12:00:48;;;;;;;9.13;4.20;;;5.10;99.70;;;;;;5013690;28;20478;-66
2022/01/11 12:03:22;;;;;;;11.30;5.30;;;5.30;99.70;;;;;;5025368;28;20456;-66
2022/01/11 12:05:50;;;;;;;8.07;4.00;;;5.50;99.70;;;;;;5028016;28;20449;-67
2022/01/11 12:08:34;;;;;;;8.20;3.93;;;5.50;99.70;;;;;;5029964;28;21012;-66
2022/01/11 12:11:04;;;;;;;8.50;4.00;;;5.30;99.70;;;;;;5027912;28;20472;-66
2022/01/11 12:13:45;;;;;;;7.53;3.60;;;5.20;99.70;;;;;;5029529;28;20840;-67
2022/01/11 12:16:40;;;;;;;7.43;4.00;;;5.20;99.70;;;;;;5012993;28;20452;-67
2022/01/11 12:19:14;;;;;;;10.13;4.40;;;5.10;99.70;;;;;;5004042;28;20445;-67
2022/01/11 12:21:44;;;;;;;11.40;4.33;;;5.10;99.70;;;;;;5012340;28;21165;-66
2022/01/11 12:24:13;;;;;;;9.00;4.60;;;5.10;99.70;;;;;;5013553;28;20436;-67
2022/01/11 12:26:40;;;;;;;7.20;3.73;;;4.90;99.70;;;;;;5012539;28;20484;-66
2022/01/11 12:29:26;;;;;;;9.60;4.80;;;4.80;99.70;;;;;;5013338;28;20487;-67
2022/01/11 12:31:56;;;;;;;8.83;3.83;;;4.90;99.70;;;;;;5011829;28;20473;-66
2022/01/11 12:34:52;;;;;;;8.70;3.83;;;4.90;99.70;;;;;;5013563;28;20460;-67
2022/01/11 12:37:25;;;;;;;10.77;4.57;;;4.80;99.70;;;;;;5013397;28;20974;-66
2022/01/11 12:40:06;;;;;;;11.17;4.20;;;4.80;99.70;;;;;;5017760;28;20494;-66
2022/01/11 12:42:34;;;;;;;10.07;4.07;;;4.90;99.70;;;;;;5013320;28;20821;-66
2022/01/11 12:47:47;;;;;;;10.10;4.40;;;4.70;99.70;;;;;;5017739;28;20989;-67
2022/01/11 12:50:16;;;;;;;9.30;4.33;;;4.80;99.70;;;;;;5028484;28;20534;-67